sensor_id;sensor_type;location;lat;lon;timestamp;P1;durP1;ratioP1;P2;durP2;ratioP2
4521;SDS011;2273;48.464;11.926;2023-09-12T00:02:04;14.13;;;11.40;;
4521;SDS011;2273;48.464;11.926;2023-09-12T00:04:29;20.70;;;12.27;;
4521;SDS011;2273;48.464;11.926;2023-09-12T00:06:55;20.53;;;14.47;;
4521;SDS011;2273;48.464;11.926;2023-09-12T00:09:21;22.90;;;14.47;;
4521;SDS011;2273;48.464;11.926;2023-09-12T00:11:46;20.83;;;13.47;;
4521;SDS011;2273;48.464;11.926;2023-09-12T00:14:14;17.63;;;13.10;;
4521;SDS011;2273;48.464;11.926;2023-09-12T00:16:40;21.20;;;12.97;;
4521;SDS011;2273;48.464;11.926;2023-09-12T00:19:06;17.23;;;12.90;;
4521;SDS011;2273;48.464;11.926;2023-09-12T00:21:31;16.60;;;12.60;;
4521;SDS011;2273;48.464;11.926;2023-09-12T00:23:57;22.33;;;12.10;;
4521;SDS011;2273;48.464;11.926;2023-09-12T00:26:22;19.20;;;12.60;;
4521;SDS011;2273;48.464;11.926;2023-09-12T00:28:49;19.60;;;12.90;;
4521;SDS011;2273;48.464;11.926;2023-09-12T00:31:15;15.20;;;11.80;;
4521;SDS011;2273;48.464;11.926;2023-09-12T00:33:40;16.70;;;12.80;;
4521;SDS011;2273;48.464;11.926;2023-09-12T00:36:05;17.43;;;12.40;;
4521;SDS011;2273;48.464;11.926;2023-09-12T00:38:31;14.40;;;12.33;;
4521;SDS011;2273;48.464;11.926;2023-09-12T00:40:56;20.57;;;13.43;;
4521;SDS011;2273;48.464;11.926;2023-09-12T00:43:22;17.33;;;12.47;;
4521;SDS011;2273;48.464;11.926;2023-09-12T00:45:47;18.07;;;12.57;;
4521;SDS011;2273;48.464;11.926;2023-09-12T00:48:13;14.60;;;11.47;;
4521;SDS011;2273;48.464;11.926;2023-09-12T00:50:38;15.33;;;11.63;;
4521;SDS011;2273;48.464;11.926;2023-09-12T00:53:04;14.60;;;10.73;;
4521;SDS011;2273;48.464;11.926;2023-09-12T00:55:31;16.90;;;10.13;;
4521;SDS011;2273;48.464;11.926;2023-09-12T00:57:57;12.40;;;9.93;;
4521;SDS011;2273;48.464;11.926;2023-09-12T01:00:23;13.30;;;10.20;;
4521;SDS011;2273;48.464;11.926;2023-09-12T01:02:48;15.43;;;10.70;;
4521;SDS011;2273;48.464;11.926;2023-09-12T01:05:16;16.87;;;10.33;;
4521;SDS011;2273;48.464;11.926;2023-09-12T01:07:42;15.83;;;11.33;;
4521;SDS011;2273;48.464;11.926;2023-09-12T01:10:08;14.10;;;10.43;;
4521;SDS011;2273;48.464;11.926;2023-09-12T01:12:34;13.43;;;11.00;;
4521;SDS011;2273;48.464;11.926;2023-09-12T01:14:59;22.53;;;10.70;;
4521;SDS011;2273;48.464;11.926;2023-09-12T01:17:25;17.63;;;11.33;;
4521;SDS011;2273;48.464;11.926;2023-09-12T01:19:51;13.80;;;11.83;;
4521;SDS011;2273;48.464;11.926;2023-09-12T01:27:48;25.03;;;11.97;;
4521;SDS011;2273;48.464;11.926;2023-09-12T01:30:22;13.53;;;11.10;;
4521;SDS011;2273;48.464;11.926;2023-09-12T01:32:48;14.27;;;11.53;;
4521;SDS011;2273;48.464;11.926;2023-09-12T01:35:14;15.70;;;11.53;;
4521;SDS011;2273;48.464;11.926;2023-09-12T01:37:39;15.30;;;11.40;;
4521;SDS011;2273;48.464;11.926;2023-09-12T01:40:05;19.83;;;13.10;;
4521;SDS011;2273;48.464;11.926;2023-09-12T01:42:38;22.10;;;14.33;;
4521;SDS011;2273;48.464;11.926;2023-09-12T01:45:09;14.90;;;11.97;;
4521;SDS011;2273;48.464;11.926;2023-09-12T01:47:35;17.10;;;12.73;;
4521;SDS011;2273;48.464;11.926;2023-09-12T01:50:02;14.20;;;11.53;;
4521;SDS011;2273;48.464;11.926;2023-09-12T01:52:28;18.53;;;12.10;;
4521;SDS011;2273;48.464;11.926;2023-09-12T01:54:54;13.03;;;11.00;;
4521;SDS011;2273;48.464;11.926;2023-09-12T01:57:20;18.87;;;12.37;;
4521;SDS011;2273;48.464;11.926;2023-09-12T01:59:47;17.77;;;11.03;;
4521;SDS011;2273;48.464;11.926;2023-09-12T02:02:14;18.00;;;12.70;;
4521;SDS011;2273;48.464;11.926;2023-09-12T02:04:51;16.83;;;13.00;;
4521;SDS011;2273;48.464;11.926;2023-09-12T02:07:33;17.43;;;12.77;;
4521;SDS011;2273;48.464;11.926;2023-09-12T02:10:02;16.77;;;11.50;;
4521;SDS011;2273;48.464;11.926;2023-09-12T02:12:29;15.20;;;11.53;;
4521;SDS011;2273;48.464;11.926;2023-09-12T02:14:55;16.20;;;12.00;;
4521;SDS011;2273;48.464;11.926;2023-09-12T02:17:20;19.77;;;12.97;;
4521;SDS011;2273;48.464;11.926;2023-09-12T02:19:47;18.10;;;12.63;;
4521;SDS011;2273;48.464;11.926;2023-09-12T02:22:13;18.10;;;13.93;;
4521;SDS011;2273;48.464;11.926;2023-09-12T02:24:38;18.10;;;14.70;;
4521;SDS011;2273;48.464;11.926;2023-09-12T02:27:03;17.93;;;12.80;;
4521;SDS011;2273;48.464;11.926;2023-09-12T02:29:29;14.83;;;10.57;;
4521;SDS011;2273;48.464;11.926;2023-09-12T02:31:56;13.27;;;10.33;;
4521;SDS011;2273;48.464;11.926;2023-09-12T02:34:21;16.50;;;10.17;;
4521;SDS011;2273;48.464;11.926;2023-09-12T02:36:47;12.20;;;9.97;;
4521;SDS011;2273;48.464;11.926;2023-09-12T02:39:12;13.33;;;9.33;;
4521;SDS011;2273;48.464;11.926;2023-09-12T02:41:38;9.93;;;8.27;;
4521;SDS011;2273;48.464;11.926;2023-09-12T02:44:03;9.03;;;8.07;;
4521;SDS011;2273;48.464;11.926;2023-09-12T02:46:29;10.07;;;8.60;;
4521;SDS011;2273;48.464;11.926;2023-09-12T02:48:54;9.40;;;7.83;;
4521;SDS011;2273;48.464;11.926;2023-09-12T02:51:19;9.10;;;7.83;;
4521;SDS011;2273;48.464;11.926;2023-09-12T02:53:45;9.30;;;8.00;;
4521;SDS011;2273;48.464;11.926;2023-09-12T02:56:10;10.97;;;8.00;;
4521;SDS011;2273;48.464;11.926;2023-09-12T02:58:36;12.60;;;8.90;;
4521;SDS011;2273;48.464;11.926;2023-09-12T03:01:01;9.90;;;8.07;;
4521;SDS011;2273;48.464;11.926;2023-09-12T03:03:28;9.90;;;8.90;;
4521;SDS011;2273;48.464;11.926;2023-09-12T03:05:57;15.00;;;8.90;;
4521;SDS011;2273;48.464;11.926;2023-09-12T03:08:24;10.90;;;9.27;;
4521;SDS011;2273;48.464;11.926;2023-09-12T03:10:54;15.20;;;10.33;;
4521;SDS011;2273;48.464;11.926;2023-09-12T03:13:20;11.20;;;9.37;;
4521;SDS011;2273;48.464;11.926;2023-09-12T03:15:45;14.60;;;10.70;;
4521;SDS011;2273;48.464;11.926;2023-09-12T03:18:11;19.43;;;11.77;;
4521;SDS011;2273;48.464;11.926;2023-09-12T03:20:40;14.63;;;11.33;;
4521;SDS011;2273;48.464;11.926;2023-09-12T03:23:06;16.10;;;10.73;;
4521;SDS011;2273;48.464;11.926;2023-09-12T03:25:35;14.00;;;11.03;;
4521;SDS011;2273;48.464;11.926;2023-09-12T03:28:01;15.10;;;12.50;;
4521;SDS011;2273;48.464;11.926;2023-09-12T03:30:27;16.10;;;11.33;;
4521;SDS011;2273;48.464;11.926;2023-09-12T03:32:53;17.00;;;12.20;;
4521;SDS011;2273;48.464;11.926;2023-09-12T03:35:18;16.73;;;12.47;;
4521;SDS011;2273;48.464;11.926;2023-09-12T03:37:44;22.83;;;12.73;;
4521;SDS011;2273;48.464;11.926;2023-09-12T03:40:09;19.07;;;12.97;;
4521;SDS011;2273;48.464;11.926;2023-09-12T03:42:36;20.20;;;12.90;;
4521;SDS011;2273;48.464;11.926;2023-09-12T03:45:02;21.03;;;16.07;;
4521;SDS011;2273;48.464;11.926;2023-09-12T03:47:28;22.00;;;16.03;;
4521;SDS011;2273;48.464;11.926;2023-09-12T03:49:54;22.60;;;14.50;;
4521;SDS011;2273;48.464;11.926;2023-09-12T03:52:19;17.77;;;14.53;;
4521;SDS011;2273;48.464;11.926;2023-09-12T03:54:45;19.80;;;15.70;;
4521;SDS011;2273;48.464;11.926;2023-09-12T03:57:10;19.27;;;15.30;;
4521;SDS011;2273;48.464;11.926;2023-09-12T03:59:36;22.40;;;15.83;;
4521;SDS011;2273;48.464;11.926;2023-09-12T04:02:02;17.50;;;13.17;;
4521;SDS011;2273;48.464;11.926;2023-09-12T04:04:28;15.10;;;12.40;;
4521;SDS011;2273;48.464;11.926;2023-09-12T04:06:53;18.20;;;13.20;;
4521;SDS011;2273;48.464;11.926;2023-09-12T04:09:20;17.17;;;13.00;;
4521;SDS011;2273;48.464;11.926;2023-09-12T04:11:46;19.63;;;12.40;;
4521;SDS011;2273;48.464;11.926;2023-09-12T04:14:11;19.80;;;11.70;;
4521;SDS011;2273;48.464;11.926;2023-09-12T04:16:37;16.40;;;11.10;;
4521;SDS011;2273;48.464;11.926;2023-09-12T04:19:03;16.77;;;12.70;;
4521;SDS011;2273;48.464;11.926;2023-09-12T04:21:28;17.10;;;11.60;;
4521;SDS011;2273;48.464;11.926;2023-09-12T04:23:54;16.43;;;12.23;;
4521;SDS011;2273;48.464;11.926;2023-09-12T04:26:19;16.47;;;11.03;;
4521;SDS011;2273;48.464;11.926;2023-09-12T04:28:46;21.60;;;12.73;;
4521;SDS011;2273;48.464;11.926;2023-09-12T04:31:12;18.27;;;13.30;;
4521;SDS011;2273;48.464;11.926;2023-09-12T04:33:37;22.13;;;13.67;;
4521;SDS011;2273;48.464;11.926;2023-09-12T04:36:04;20.30;;;14.50;;
4521;SDS011;2273;48.464;11.926;2023-09-12T04:38:29;17.40;;;12.73;;
4521;SDS011;2273;48.464;11.926;2023-09-12T04:40:56;17.07;;;13.03;;
4521;SDS011;2273;48.464;11.926;2023-09-12T04:43:22;16.20;;;12.70;;
4521;SDS011;2273;48.464;11.926;2023-09-12T04:45:48;32.37;;;15.43;;
4521;SDS011;2273;48.464;11.926;2023-09-12T04:48:14;22.67;;;14.70;;
4521;SDS011;2273;48.464;11.926;2023-09-12T04:50:42;18.80;;;14.63;;
4521;SDS011;2273;48.464;11.926;2023-09-12T04:53:08;16.53;;;14.33;;
4521;SDS011;2273;48.464;11.926;2023-09-12T04:55:37;16.50;;;13.27;;
4521;SDS011;2273;48.464;11.926;2023-09-12T04:58:04;13.37;;;11.40;;
4521;SDS011;2273;48.464;11.926;2023-09-12T05:00:29;16.13;;;13.77;;
4521;SDS011;2273;48.464;11.926;2023-09-12T05:02:55;16.87;;;13.27;;
4521;SDS011;2273;48.464;11.926;2023-09-12T05:05:20;15.27;;;13.03;;
4521;SDS011;2273;48.464;11.926;2023-09-12T05:07:46;17.83;;;13.13;;
4521;SDS011;2273;48.464;11.926;2023-09-12T05:10:11;14.83;;;12.23;;
4521;SDS011;2273;48.464;11.926;2023-09-12T05:12:37;16.13;;;12.40;;
4521;SDS011;2273;48.464;11.926;2023-09-12T05:15:02;15.67;;;12.20;;
4521;SDS011;2273;48.464;11.926;2023-09-12T05:17:28;14.53;;;11.70;;
4521;SDS011;2273;48.464;11.926;2023-09-12T05:19:53;17.50;;;12.93;;
4521;SDS011;2273;48.464;11.926;2023-09-12T05:22:19;16.80;;;13.53;;
4521;SDS011;2273;48.464;11.926;2023-09-12T05:24:45;18.67;;;14.43;;
4521;SDS011;2273;48.464;11.926;2023-09-12T05:27:11;15.93;;;13.10;;
4521;SDS011;2273;48.464;11.926;2023-09-12T05:29:37;15.00;;;11.77;;
4521;SDS011;2273;48.464;11.926;2023-09-12T05:32:02;17.00;;;13.40;;
4521;SDS011;2273;48.464;11.926;2023-09-12T05:34:29;19.30;;;13.90;;
4521;SDS011;2273;48.464;11.926;2023-09-12T05:36:54;21.40;;;12.60;;
4521;SDS011;2273;48.464;11.926;2023-09-12T05:39:20;21.10;;;13.60;;
4521;SDS011;2273;48.464;11.926;2023-09-12T05:41:45;15.47;;;13.30;;
4521;SDS011;2273;48.464;11.926;2023-09-12T05:44:11;16.90;;;13.60;;
4521;SDS011;2273;48.464;11.926;2023-09-12T05:46:38;16.00;;;13.50;;
4521;SDS011;2273;48.464;11.926;2023-09-12T05:49:03;16.57;;;12.43;;
4521;SDS011;2273;48.464;11.926;2023-09-12T05:51:29;18.23;;;12.53;;
4521;SDS011;2273;48.464;11.926;2023-09-12T05:53:55;16.03;;;12.67;;
4521;SDS011;2273;48.464;11.926;2023-09-12T05:56:20;17.40;;;13.87;;
4521;SDS011;2273;48.464;11.926;2023-09-12T05:58:46;18.30;;;15.47;;
4521;SDS011;2273;48.464;11.926;2023-09-12T06:01:11;17.80;;;15.00;;
4521;SDS011;2273;48.464;11.926;2023-09-12T06:03:37;16.53;;;14.33;;
4521;SDS011;2273;48.464;11.926;2023-09-12T06:06:03;17.30;;;14.40;;
4521;SDS011;2273;48.464;11.926;2023-09-12T06:08:28;16.70;;;13.03;;
4521;SDS011;2273;48.464;11.926;2023-09-12T06:10:54;27.93;;;13.50;;
4521;SDS011;2273;48.464;11.926;2023-09-12T06:13:20;14.53;;;12.17;;
4521;SDS011;2273;48.464;11.926;2023-09-12T06:15:45;17.30;;;14.47;;
4521;SDS011;2273;48.464;11.926;2023-09-12T06:18:11;19.17;;;15.37;;
4521;SDS011;2273;48.464;11.926;2023-09-12T06:20:36;21.97;;;16.33;;
4521;SDS011;2273;48.464;11.926;2023-09-12T06:23:02;24.03;;;16.17;;
4521;SDS011;2273;48.464;11.926;2023-09-12T06:25:28;23.37;;;18.77;;
4521;SDS011;2273;48.464;11.926;2023-09-12T06:27:54;21.67;;;16.40;;
4521;SDS011;2273;48.464;11.926;2023-09-12T06:30:20;21.20;;;16.37;;
4521;SDS011;2273;48.464;11.926;2023-09-12T06:32:45;23.67;;;16.37;;
4521;SDS011;2273;48.464;11.926;2023-09-12T06:35:11;24.53;;;16.10;;
4521;SDS011;2273;48.464;11.926;2023-09-12T06:37:37;21.13;;;15.60;;
4521;SDS011;2273;48.464;11.926;2023-09-12T06:40:04;31.80;;;19.37;;
4521;SDS011;2273;48.464;11.926;2023-09-12T06:42:30;24.13;;;19.90;;
4521;SDS011;2273;48.464;11.926;2023-09-12T06:44:56;31.73;;;19.40;;
4521;SDS011;2273;48.464;11.926;2023-09-12T06:47:21;24.10;;;18.30;;
4521;SDS011;2273;48.464;11.926;2023-09-12T06:49:46;26.57;;;17.90;;
4521;SDS011;2273;48.464;11.926;2023-09-12T06:52:12;27.60;;;21.57;;
4521;SDS011;2273;48.464;11.926;2023-09-12T06:54:38;24.53;;;19.93;;
4521;SDS011;2273;48.464;11.926;2023-09-12T06:57:04;30.53;;;21.67;;
4521;SDS011;2273;48.464;11.926;2023-09-12T06:59:29;27.87;;;21.97;;
4521;SDS011;2273;48.464;11.926;2023-09-12T07:01:55;35.43;;;20.13;;
4521;SDS011;2273;48.464;11.926;2023-09-12T07:04:21;29.17;;;20.70;;
4521;SDS011;2273;48.464;11.926;2023-09-12T07:06:46;29.93;;;21.97;;
4521;SDS011;2273;48.464;11.926;2023-09-12T07:09:12;29.00;;;20.07;;
4521;SDS011;2273;48.464;11.926;2023-09-12T07:11:40;24.43;;;19.23;;
4521;SDS011;2273;48.464;11.926;2023-09-12T07:14:06;33.37;;;21.50;;
4521;SDS011;2273;48.464;11.926;2023-09-12T07:16:31;27.53;;;18.73;;
4521;SDS011;2273;48.464;11.926;2023-09-12T07:18:57;27.30;;;20.10;;
4521;SDS011;2273;48.464;11.926;2023-09-12T07:21:23;26.87;;;20.03;;
4521;SDS011;2273;48.464;11.926;2023-09-12T07:23:48;29.30;;;18.60;;
4521;SDS011;2273;48.464;11.926;2023-09-12T07:26:14;22.93;;;17.77;;
4521;SDS011;2273;48.464;11.926;2023-09-12T07:28:39;28.67;;;18.60;;
4521;SDS011;2273;48.464;11.926;2023-09-12T07:31:05;21.17;;;17.33;;
4521;SDS011;2273;48.464;11.926;2023-09-12T07:33:30;30.20;;;18.10;;
4521;SDS011;2273;48.464;11.926;2023-09-12T07:35:57;22.60;;;18.10;;
4521;SDS011;2273;48.464;11.926;2023-09-12T07:38:24;23.03;;;16.97;;
4521;SDS011;2273;48.464;11.926;2023-09-12T07:40:50;22.07;;;17.03;;
4521;SDS011;2273;48.464;11.926;2023-09-12T07:43:15;21.90;;;17.50;;
4521;SDS011;2273;48.464;11.926;2023-09-12T07:45:41;24.30;;;18.33;;
4521;SDS011;2273;48.464;11.926;2023-09-12T07:48:07;24.50;;;17.70;;
4521;SDS011;2273;48.464;11.926;2023-09-12T07:50:35;23.17;;;18.33;;
4521;SDS011;2273;48.464;11.926;2023-09-12T07:53:03;27.57;;;18.47;;
4521;SDS011;2273;48.464;11.926;2023-09-12T07:55:32;22.77;;;17.47;;
4521;SDS011;2273;48.464;11.926;2023-09-12T07:58:10;19.63;;;15.83;;
4521;SDS011;2273;48.464;11.926;2023-09-12T08:00:36;22.53;;;17.47;;
4521;SDS011;2273;48.464;11.926;2023-09-12T08:03:01;27.47;;;16.33;;
4521;SDS011;2273;48.464;11.926;2023-09-12T08:05:27;24.83;;;17.53;;
4521;SDS011;2273;48.464;11.926;2023-09-12T08:07:52;22.50;;;15.63;;
4521;SDS011;2273;48.464;11.926;2023-09-12T08:10:18;25.67;;;16.57;;
4521;SDS011;2273;48.464;11.926;2023-09-12T08:12:43;19.60;;;14.87;;
4521;SDS011;2273;48.464;11.926;2023-09-12T08:15:08;30.50;;;16.13;;
4521;SDS011;2273;48.464;11.926;2023-09-12T08:17:34;18.53;;;14.33;;
4521;SDS011;2273;48.464;11.926;2023-09-12T08:19:59;18.07;;;14.70;;
4521;SDS011;2273;48.464;11.926;2023-09-12T08:22:25;18.57;;;14.03;;
4521;SDS011;2273;48.464;11.926;2023-09-12T08:24:50;19.73;;;13.37;;
4521;SDS011;2273;48.464;11.926;2023-09-12T08:27:16;21.00;;;14.23;;
4521;SDS011;2273;48.464;11.926;2023-09-12T08:29:41;19.53;;;14.97;;
4521;SDS011;2273;48.464;11.926;2023-09-12T08:32:08;20.30;;;14.83;;
4521;SDS011;2273;48.464;11.926;2023-09-12T08:34:34;33.10;;;14.30;;
4521;SDS011;2273;48.464;11.926;2023-09-12T08:36:59;18.47;;;14.10;;
4521;SDS011;2273;48.464;11.926;2023-09-12T08:39:25;23.93;;;13.97;;
4521;SDS011;2273;48.464;11.926;2023-09-12T08:41:51;19.83;;;14.07;;
4521;SDS011;2273;48.464;11.926;2023-09-12T08:44:17;16.17;;;13.20;;
4521;SDS011;2273;48.464;11.926;2023-09-12T08:46:43;23.00;;;14.93;;
4521;SDS011;2273;48.464;11.926;2023-09-12T08:49:09;20.67;;;12.77;;
4521;SDS011;2273;48.464;11.926;2023-09-12T08:51:35;20.23;;;12.77;;
4521;SDS011;2273;48.464;11.926;2023-09-12T08:54:04;22.23;;;13.70;;
4521;SDS011;2273;48.464;11.926;2023-09-12T08:56:30;20.23;;;14.00;;
4521;SDS011;2273;48.464;11.926;2023-09-12T08:58:57;23.50;;;13.20;;
4521;SDS011;2273;48.464;11.926;2023-09-12T09:01:23;17.97;;;13.93;;
4521;SDS011;2273;48.464;11.926;2023-09-12T09:03:49;18.73;;;13.90;;
4521;SDS011;2273;48.464;11.926;2023-09-12T09:06:14;23.67;;;12.77;;
4521;SDS011;2273;48.464;11.926;2023-09-12T09:08:41;22.43;;;13.43;;
4521;SDS011;2273;48.464;11.926;2023-09-12T09:11:08;21.53;;;12.93;;
4521;SDS011;2273;48.464;11.926;2023-09-12T09:13:35;15.40;;;11.90;;
4521;SDS011;2273;48.464;11.926;2023-09-12T09:18:52;18.57;;;12.93;;
4521;SDS011;2273;48.464;11.926;2023-09-12T09:21:28;19.93;;;12.57;;
4521;SDS011;2273;48.464;11.926;2023-09-12T09:23:56;16.77;;;10.83;;
4521;SDS011;2273;48.464;11.926;2023-09-12T09:26:23;26.60;;;12.17;;
4521;SDS011;2273;48.464;11.926;2023-09-12T09:29:06;16.63;;;11.27;;
4521;SDS011;2273;48.464;11.926;2023-09-12T09:31:33;16.53;;;11.10;;
4521;SDS011;2273;48.464;11.926;2023-09-12T09:33:59;16.43;;;10.73;;
4521;SDS011;2273;48.464;11.926;2023-09-12T09:36:26;19.73;;;10.97;;
4521;SDS011;2273;48.464;11.926;2023-09-12T09:38:52;14.57;;;11.00;;
4521;SDS011;2273;48.464;11.926;2023-09-12T09:41:20;16.70;;;10.43;;
4521;SDS011;2273;48.464;11.926;2023-09-12T09:43:49;18.53;;;11.60;;
4521;SDS011;2273;48.464;11.926;2023-09-12T09:46:15;14.57;;;10.37;;
4521;SDS011;2273;48.464;11.926;2023-09-12T09:48:42;14.17;;;10.93;;
4521;SDS011;2273;48.464;11.926;2023-09-12T09:51:13;17.33;;;10.90;;
4521;SDS011;2273;48.464;11.926;2023-09-12T09:53:39;34.03;;;12.70;;
4521;SDS011;2273;48.464;11.926;2023-09-12T09:56:11;17.83;;;10.87;;
4521;SDS011;2273;48.464;11.926;2023-09-12T09:58:51;18.40;;;11.77;;
4521;SDS011;2273;48.464;11.926;2023-09-12T10:01:18;18.90;;;10.70;;
4521;SDS011;2273;48.464;11.926;2023-09-12T10:03:48;23.23;;;10.87;;
4521;SDS011;2273;48.464;11.926;2023-09-12T10:06:15;21.97;;;10.33;;
4521;SDS011;2273;48.464;11.926;2023-09-12T10:08:43;13.67;;;10.90;;
4521;SDS011;2273;48.464;11.926;2023-09-12T10:11:10;19.80;;;11.37;;
4521;SDS011;2273;48.464;11.926;2023-09-12T10:13:35;24.43;;;10.87;;
4521;SDS011;2273;48.464;11.926;2023-09-12T10:16:03;16.30;;;10.20;;
4521;SDS011;2273;48.464;11.926;2023-09-12T10:18:30;14.87;;;9.43;;
4521;SDS011;2273;48.464;11.926;2023-09-12T10:21:10;13.90;;;10.30;;
4521;SDS011;2273;48.464;11.926;2023-09-12T10:23:41;22.70;;;10.17;;
4521;SDS011;2273;48.464;11.926;2023-09-12T10:26:12;14.13;;;9.60;;
4521;SDS011;2273;48.464;11.926;2023-09-12T10:28:42;12.13;;;9.60;;
4521;SDS011;2273;48.464;11.926;2023-09-12T10:31:12;14.20;;;9.10;;
4521;SDS011;2273;48.464;11.926;2023-09-12T10:33:38;17.50;;;9.87;;
4521;SDS011;2273;48.464;11.926;2023-09-12T10:36:04;11.87;;;10.20;;
4521;SDS011;2273;48.464;11.926;2023-09-12T10:38:32;11.87;;;9.53;;
4521;SDS011;2273;48.464;11.926;2023-09-12T10:40:59;15.10;;;9.47;;
4521;SDS011;2273;48.464;11.926;2023-09-12T10:43:26;9.70;;;8.70;;
4521;SDS011;2273;48.464;11.926;2023-09-12T10:45:51;15.17;;;10.00;;
4521;SDS011;2273;48.464;11.926;2023-09-12T10:48:17;20.83;;;10.10;;
4521;SDS011;2273;48.464;11.926;2023-09-12T10:50:43;16.60;;;10.07;;
4521;SDS011;2273;48.464;11.926;2023-09-12T10:53:12;11.37;;;9.40;;
4521;SDS011;2273;48.464;11.926;2023-09-12T10:55:39;17.90;;;9.07;;
4521;SDS011;2273;48.464;11.926;2023-09-12T10:58:06;11.33;;;9.03;;
4521;SDS011;2273;48.464;11.926;2023-09-12T11:00:38;11.97;;;8.40;;
4521;SDS011;2273;48.464;11.926;2023-09-12T11:05:52;18.30;;;9.53;;
4521;SDS011;2273;48.464;11.926;2023-09-12T11:08:18;13.80;;;8.70;;
4521;SDS011;2273;48.464;11.926;2023-09-12T11:10:44;11.00;;;9.00;;
4521;SDS011;2273;48.464;11.926;2023-09-12T11:13:16;10.53;;;8.47;;
4521;SDS011;2273;48.464;11.926;2023-09-12T11:16:09;12.73;;;9.70;;
4521;SDS011;2273;48.464;11.926;2023-09-12T11:19:03;10.23;;;8.63;;
4521;SDS011;2273;48.464;11.926;2023-09-12T11:21:47;11.27;;;8.70;;
4521;SDS011;2273;48.464;11.926;2023-09-12T11:24:15;10.30;;;7.77;;
4521;SDS011;2273;48.464;11.926;2023-09-12T11:26:56;10.63;;;9.00;;
4521;SDS011;2273;48.464;11.926;2023-09-12T11:29:29;15.63;;;8.87;;
4521;SDS011;2273;48.464;11.926;2023-09-12T11:32:00;10.60;;;8.73;;
4521;SDS011;2273;48.464;11.926;2023-09-12T11:34:27;14.80;;;8.47;;
4521;SDS011;2273;48.464;11.926;2023-09-12T11:36:57;10.00;;;8.00;;
4521;SDS011;2273;48.464;11.926;2023-09-12T11:39:25;9.97;;;8.93;;
4521;SDS011;2273;48.464;11.926;2023-09-12T11:41:55;13.57;;;8.50;;
4521;SDS011;2273;48.464;11.926;2023-09-12T11:44:21;11.40;;;8.23;;
4521;SDS011;2273;48.464;11.926;2023-09-12T11:46:47;9.87;;;8.10;;
4521;SDS011;2273;48.464;11.926;2023-09-12T11:49:17;11.70;;;7.73;;
4521;SDS011;2273;48.464;11.926;2023-09-12T11:51:49;12.30;;;7.43;;
4521;SDS011;2273;48.464;11.926;2023-09-12T11:54:17;10.60;;;8.53;;
4521;SDS011;2273;48.464;11.926;2023-09-12T11:56:49;11.53;;;8.00;;
4521;SDS011;2273;48.464;11.926;2023-09-12T11:59:21;10.93;;;8.37;;
4521;SDS011;2273;48.464;11.926;2023-09-12T12:01:49;15.33;;;8.27;;
4521;SDS011;2273;48.464;11.926;2023-09-12T12:04:16;9.13;;;8.00;;
4521;SDS011;2273;48.464;11.926;2023-09-12T12:06:41;9.10;;;7.40;;
4521;SDS011;2273;48.464;11.926;2023-09-12T12:09:08;9.83;;;7.60;;
4521;SDS011;2273;48.464;11.926;2023-09-12T12:11:34;9.43;;;8.10;;
4521;SDS011;2273;48.464;11.926;2023-09-12T12:14:12;12.70;;;7.87;;
4521;SDS011;2273;48.464;11.926;2023-09-12T12:16:40;14.83;;;7.10;;
4521;SDS011;2273;48.464;11.926;2023-09-12T12:19:05;9.07;;;7.50;;
4521;SDS011;2273;48.464;11.926;2023-09-12T12:21:30;10.73;;;7.87;;
4521;SDS011;2273;48.464;11.926;2023-09-12T12:23:57;8.60;;;7.23;;
4521;SDS011;2273;48.464;11.926;2023-09-12T12:26:26;13.63;;;7.77;;
4521;SDS011;2273;48.464;11.926;2023-09-12T12:28:52;11.80;;;7.67;;
4521;SDS011;2273;48.464;11.926;2023-09-12T12:31:18;11.20;;;8.63;;
4521;SDS011;2273;48.464;11.926;2023-09-12T12:33:52;9.80;;;7.23;;
4521;SDS011;2273;48.464;11.926;2023-09-12T12:36:18;7.90;;;7.10;;
4521;SDS011;2273;48.464;11.926;2023-09-12T12:38:45;12.20;;;7.57;;
4521;SDS011;2273;48.464;11.926;2023-09-12T12:41:11;9.80;;;7.53;;
4521;SDS011;2273;48.464;11.926;2023-09-12T12:43:39;11.33;;;7.10;;
4521;SDS011;2273;48.464;11.926;2023-09-12T12:46:09;10.43;;;7.57;;
4521;SDS011;2273;48.464;11.926;2023-09-12T12:48:36;13.40;;;6.80;;
4521;SDS011;2273;48.464;11.926;2023-09-12T12:51:23;10.97;;;7.67;;
4521;SDS011;2273;48.464;11.926;2023-09-12T12:53:50;10.70;;;7.40;;
4521;SDS011;2273;48.464;11.926;2023-09-12T12:56:20;8.40;;;6.93;;
4521;SDS011;2273;48.464;11.926;2023-09-12T13:01:29;9.10;;;6.47;;
4521;SDS011;2273;48.464;11.926;2023-09-12T13:03:54;13.80;;;8.00;;
4521;SDS011;2273;48.464;11.926;2023-09-12T13:06:21;8.27;;;6.67;;
4521;SDS011;2273;48.464;11.926;2023-09-12T13:08:47;8.47;;;6.70;;
4521;SDS011;2273;48.464;11.926;2023-09-12T13:11:14;11.57;;;6.67;;
4521;SDS011;2273;48.464;11.926;2023-09-12T13:13:40;11.77;;;7.03;;
4521;SDS011;2273;48.464;11.926;2023-09-12T13:16:08;11.67;;;6.43;;
4521;SDS011;2273;48.464;11.926;2023-09-12T13:18:38;7.33;;;6.27;;
4521;SDS011;2273;48.464;11.926;2023-09-12T13:21:04;8.17;;;6.77;;
4521;SDS011;2273;48.464;11.926;2023-09-12T13:23:30;7.60;;;6.27;;
4521;SDS011;2273;48.464;11.926;2023-09-12T13:25:56;8.40;;;6.30;;
4521;SDS011;2273;48.464;11.926;2023-09-12T13:28:22;10.50;;;6.43;;
4521;SDS011;2273;48.464;11.926;2023-09-12T13:30:53;7.97;;;6.40;;
4521;SDS011;2273;48.464;11.926;2023-09-12T13:33:19;8.67;;;6.33;;
4521;SDS011;2273;48.464;11.926;2023-09-12T13:35:46;9.33;;;5.70;;
4521;SDS011;2273;48.464;11.926;2023-09-12T13:38:12;10.30;;;6.57;;
4521;SDS011;2273;48.464;11.926;2023-09-12T13:40:37;7.87;;;5.70;;
4521;SDS011;2273;48.464;11.926;2023-09-12T13:43:03;11.73;;;6.53;;
4521;SDS011;2273;48.464;11.926;2023-09-12T13:45:29;9.40;;;6.30;;
4521;SDS011;2273;48.464;11.926;2023-09-12T13:47:55;8.10;;;6.37;;
4521;SDS011;2273;48.464;11.926;2023-09-12T13:50:20;6.83;;;5.70;;
4521;SDS011;2273;48.464;11.926;2023-09-12T13:52:46;7.50;;;6.37;;
4521;SDS011;2273;48.464;11.926;2023-09-12T13:55:11;6.90;;;5.70;;
4521;SDS011;2273;48.464;11.926;2023-09-12T13:57:39;9.00;;;5.67;;
4521;SDS011;2273;48.464;11.926;2023-09-12T14:00:05;10.30;;;5.90;;
4521;SDS011;2273;48.464;11.926;2023-09-12T14:02:34;7.30;;;6.00;;
4521;SDS011;2273;48.464;11.926;2023-09-12T14:05:00;9.93;;;6.60;;
4521;SDS011;2273;48.464;11.926;2023-09-12T14:07:25;8.90;;;6.17;;
4521;SDS011;2273;48.464;11.926;2023-09-12T14:09:51;11.53;;;6.07;;
4521;SDS011;2273;48.464;11.926;2023-09-12T14:12:19;11.60;;;6.20;;
4521;SDS011;2273;48.464;11.926;2023-09-12T14:14:45;10.30;;;5.90;;
4521;SDS011;2273;48.464;11.926;2023-09-12T14:17:11;8.20;;;5.00;;
4521;SDS011;2273;48.464;11.926;2023-09-12T14:19:36;7.13;;;5.90;;
4521;SDS011;2273;48.464;11.926;2023-09-12T14:22:02;7.13;;;5.67;;
4521;SDS011;2273;48.464;11.926;2023-09-12T14:24:28;5.63;;;4.97;;
4521;SDS011;2273;48.464;11.926;2023-09-12T14:26:53;9.00;;;5.47;;
4521;SDS011;2273;48.464;11.926;2023-09-12T14:29:19;9.73;;;6.20;;
4521;SDS011;2273;48.464;11.926;2023-09-12T14:31:44;8.90;;;5.30;;
4521;SDS011;2273;48.464;11.926;2023-09-12T14:34:15;12.73;;;6.30;;
4521;SDS011;2273;48.464;11.926;2023-09-12T14:36:41;21.03;;;5.63;;
4521;SDS011;2273;48.464;11.926;2023-09-12T14:39:06;9.60;;;5.30;;
4521;SDS011;2273;48.464;11.926;2023-09-12T14:41:32;8.07;;;5.27;;
4521;SDS011;2273;48.464;11.926;2023-09-12T14:43:57;6.57;;;5.10;;
4521;SDS011;2273;48.464;11.926;2023-09-12T14:46:23;9.13;;;5.30;;
4521;SDS011;2273;48.464;11.926;2023-09-12T14:48:48;14.00;;;5.60;;
4521;SDS011;2273;48.464;11.926;2023-09-12T14:51:13;8.17;;;5.83;;
4521;SDS011;2273;48.464;11.926;2023-09-12T14:53:39;8.60;;;5.17;;